createdAt,value
2023-04-19T00:00:08.198Z,54.64
2023-04-19T00:02:36.152Z,54.42
2023-04-19T00:05:03.325Z,54.45
2023-04-19T00:07:30.327Z,54.66
2023-04-19T00:09:57.212Z,54.66
2023-04-19T00:12:24.166Z,54.98
2023-04-19T00:14:51.044Z,55.04
2023-04-19T00:17:18.096Z,55.16
2023-04-19T00:19:45.000Z,55.30
2023-04-19T00:22:12.212Z,55.39
2023-04-19T00:24:39.063Z,55.52
2023-04-19T00:27:05.921Z,55.72
2023-04-19T00:29:32.883Z,55.93
2023-04-19T00:31:59.776Z,55.77
2023-04-19T00:34:26.664Z,56.19
2023-04-19T00:36:56.834Z,56.60
2023-04-19T00:39:24.146Z,56.89
2023-04-19T00:41:51.014Z,56.80
2023-04-19T00:44:19.010Z,57.14
2023-04-19T00:46:46.011Z,57.23
2023-04-19T00:49:13.113Z,57.33
2023-04-19T00:51:40.059Z,57.51
2023-04-19T00:54:08.180Z,57.52
2023-04-19T00:56:35.797Z,58.10
2023-04-19T00:59:02.944Z,57.95
2023-04-19T01:01:31.636Z,58.04
2023-04-19T01:03:58.921Z,58.31
2023-04-19T01:06:28.118Z,58.17
2023-04-19T01:08:54.983Z,58.40
2023-04-19T01:11:26.266Z,57.53
2023-04-19T01:13:53.170Z,57.56
2023-04-19T01:16:20.149Z,57.11
2023-04-19T01:18:47.173Z,57.16
2023-04-19T01:21:14.106Z,56.96
2023-04-19T01:23:41.343Z,56.53
2023-04-19T01:26:08.282Z,56.71
2023-04-19T01:28:35.200Z,56.44
2023-04-19T01:31:02.222Z,56.57
2023-04-19T01:33:29.190Z,56.70
2023-04-19T01:35:56.129Z,56.66
2023-04-19T01:38:23.100Z,57.10
2023-04-19T01:40:50.003Z,57.01
2023-04-19T01:43:18.569Z,57.13
2023-04-19T01:45:45.979Z,56.76
2023-04-19T01:48:12.909Z,56.89
2023-04-19T01:50:39.827Z,56.77
2023-04-19T01:53:06.723Z,56.69
2023-04-19T01:55:33.698Z,56.52
2023-04-19T01:58:00.667Z,56.83
2023-04-19T02:00:28.792Z,57.27
2023-04-19T02:02:55.899Z,57.49
2023-04-19T02:05:22.999Z,57.25
2023-04-19T02:07:49.914Z,57.66
2023-04-19T02:10:16.953Z,57.82
2023-04-19T02:12:43.939Z,57.83
2023-04-19T02:15:11.056Z,58.12
2023-04-19T02:17:38.908Z,58.28
2023-04-19T02:20:08.484Z,58.54
2023-04-19T02:22:35.436Z,58.67
2023-04-19T02:25:02.426Z,58.90
2023-04-19T02:27:31.176Z,58.87
2023-04-19T02:29:58.113Z,58.53
2023-04-19T02:32:25.157Z,58.82
2023-04-19T02:34:52.068Z,58.63
2023-04-19T02:37:18.974Z,58.29
2023-04-19T02:39:46.304Z,58.29
2023-04-19T02:42:13.320Z,58.56
2023-04-19T02:44:40.263Z,58.45
2023-04-19T02:47:08.091Z,58.12
2023-04-19T02:49:37.014Z,57.91
2023-04-19T02:52:04.675Z,57.21
2023-04-19T02:54:33.842Z,57.30
2023-04-19T02:57:01.138Z,56.67
2023-04-19T02:59:28.258Z,56.78
2023-04-19T03:01:57.964Z,56.65
2023-04-19T03:04:25.723Z,56.58
2023-04-19T03:06:53.039Z,56.66
2023-04-19T03:09:20.347Z,56.55
2023-04-19T03:11:47.214Z,56.71
2023-04-19T03:14:14.359Z,56.49
2023-04-19T03:16:41.694Z,56.97
2023-04-19T03:19:09.398Z,57.43
2023-04-19T03:21:42.809Z,57.35
2023-04-19T03:24:09.753Z,57.74
2023-04-19T03:26:40.471Z,57.84
2023-04-19T03:29:07.806Z,57.74
2023-04-19T03:31:39.410Z,58.41
2023-04-19T03:34:08.242Z,57.95
2023-04-19T03:36:40.826Z,57.86
2023-04-19T03:39:08.300Z,58.10
2023-04-19T03:41:37.026Z,58.33
2023-04-19T03:44:24.244Z,57.94
2023-04-19T03:46:51.202Z,58.02
2023-04-19T03:49:22.820Z,57.62
2023-04-19T03:52:00.966Z,57.31
2023-04-19T03:54:28.216Z,57.40
2023-04-19T03:56:55.219Z,57.47
2023-04-19T03:59:22.357Z,57.50
2023-04-19T04:01:52.420Z,58.00
2023-04-19T04:04:19.703Z,57.79
2023-04-19T04:06:46.919Z,57.89
2023-04-19T04:09:16.719Z,57.60
2023-04-19T04:11:44.303Z,58.12
2023-04-19T04:14:11.698Z,58.01
2023-04-19T04:16:39.365Z,58.53
2023-04-19T04:19:07.446Z,58.49
2023-04-19T04:21:37.307Z,58.22
2023-04-19T04:24:07.810Z,58.38
2023-04-19T04:26:44.126Z,58.44
2023-04-19T04:29:23.328Z,58.33
2023-04-19T04:31:52.798Z,58.26
2023-04-19T04:34:24.587Z,58.06
2023-04-19T04:36:57.524Z,57.93
2023-04-19T04:39:25.021Z,57.81
2023-04-19T04:41:53.235Z,57.68
2023-04-19T04:44:22.664Z,57.30
2023-04-19T04:46:49.816Z,56.96
2023-04-19T04:49:22.640Z,57.43
2023-04-19T04:51:49.570Z,57.15
2023-04-19T04:54:17.413Z,57.34
2023-04-19T04:56:45.440Z,57.16
2023-04-19T04:59:12.516Z,56.78
2023-04-19T05:01:43.481Z,56.37
2023-04-19T05:04:10.761Z,55.74
2023-04-19T05:06:40.763Z,55.60
2023-04-19T05:09:09.483Z,55.38
2023-04-19T05:11:36.751Z,55.14
2023-04-19T05:14:04.498Z,55.29
2023-04-19T05:16:33.658Z,55.12
2023-04-19T05:19:01.069Z,55.27
2023-04-19T05:21:33.598Z,55.30
2023-04-19T05:24:02.997Z,55.47
2023-04-19T05:26:30.322Z,55.45
2023-04-19T05:28:57.234Z,55.84
2023-04-19T05:31:59.356Z,56.01
2023-04-19T05:34:30.485Z,56.11
2023-04-19T05:36:58.799Z,56.17
2023-04-19T05:39:26.404Z,56.22
2023-04-19T05:41:53.316Z,56.70
2023-04-19T05:44:20.323Z,56.67
2023-04-19T05:46:47.291Z,56.67
2023-04-19T05:49:19.250Z,56.68
2023-04-19T05:52:02.961Z,57.03
2023-04-19T05:54:36.087Z,57.19
2023-04-19T05:57:04.209Z,57.05
2023-04-19T05:59:31.288Z,57.31
2023-04-19T06:01:58.396Z,57.35
2023-04-19T06:04:25.703Z,57.09
2023-04-19T06:06:52.833Z,57.31
2023-04-19T06:09:19.817Z,57.05
2023-04-19T06:11:50.667Z,57.01
2023-04-19T06:14:18.448Z,56.76
2023-04-19T06:16:45.775Z,56.54
2023-04-19T06:19:13.484Z,56.52
2023-04-19T06:21:40.569Z,56.77
2023-04-19T06:24:07.944Z,56.41
2023-04-19T06:26:35.004Z,56.11
2023-04-19T06:29:02.019Z,56.17
2023-04-19T06:31:29.026Z,56.25
2023-04-19T06:33:56.034Z,56.07
2023-04-19T06:36:22.964Z,55.67
2023-04-19T06:38:50.316Z,55.70
2023-04-19T06:41:17.757Z,55.54
2023-04-19T06:43:44.926Z,55.68
2023-04-19T06:46:14.080Z,54.25
2023-04-19T06:48:41.819Z,53.62
2023-04-19T06:51:09.215Z,52.98
2023-04-19T06:53:36.434Z,52.82
2023-04-19T06:56:04.696Z,51.89
2023-04-19T06:58:34.541Z,52.02
2023-04-19T07:01:04.371Z,51.35
2023-04-19T07:03:31.607Z,50.93
2023-04-19T07:05:58.791Z,50.84
2023-04-19T07:08:35.049Z,50.56
2023-04-19T07:11:05.948Z,50.27
2023-04-19T07:13:32.846Z,49.53
2023-04-19T07:15:59.810Z,49.28
2023-04-19T07:18:26.894Z,48.26
2023-04-19T07:20:53.784Z,48.13
2023-04-19T07:23:20.670Z,48.24
2023-04-19T07:25:47.597Z,48.11
2023-04-19T07:28:15.900Z,48.34
2023-04-19T07:30:45.984Z,46.78
2023-04-19T07:33:13.024Z,47.43
2023-04-19T07:35:40.345Z,47.66
2023-04-19T07:38:07.362Z,47.05
2023-04-19T07:40:34.262Z,47.15
2023-04-19T07:43:01.147Z,46.35
2023-04-19T07:45:28.037Z,45.89
2023-04-19T07:47:54.945Z,46.22
2023-04-19T07:50:23.244Z,45.29
2023-04-19T07:52:50.226Z,45.14
2023-04-19T07:55:17.144Z,44.74
2023-04-19T07:57:48.107Z,45.14
2023-04-19T08:00:16.376Z,45.17
2023-04-19T08:02:47.743Z,44.84
2023-04-19T08:05:20.042Z,44.63
2023-04-19T08:07:47.159Z,44.80
2023-04-19T08:10:14.475Z,43.92
2023-04-19T08:12:50.678Z,43.44
2023-04-19T08:16:14.955Z,43.03
2023-04-19T08:18:15.380Z,42.41
2023-04-19T08:20:46.388Z,42.86
2023-04-19T08:23:21.519Z,42.34
2023-04-19T08:25:51.264Z,42.18
2023-04-19T08:28:19.023Z,42.13
2023-04-19T08:30:45.984Z,41.36
2023-04-19T08:33:12.901Z,39.93
2023-04-19T08:35:42.797Z,38.76
2023-04-19T08:38:09.981Z,39.70
2023-04-19T08:40:42.910Z,40.38
2023-04-19T08:43:09.868Z,39.92
2023-04-19T08:45:37.262Z,39.36
2023-04-19T08:48:06.356Z,40.37
2023-04-19T08:50:42.594Z,39.90
2023-04-19T08:53:24.614Z,40.02
2023-04-19T08:56:12.694Z,40.25
2023-04-19T08:59:03.946Z,40.39
2023-04-19T09:01:35.986Z,38.88
2023-04-19T09:04:26.212Z,39.39
2023-04-19T09:06:55.449Z,39.30
2023-04-19T09:11:58.175Z,40.56
2023-04-19T09:14:27.286Z,40.98
2023-04-19T09:16:54.295Z,40.01
2023-04-19T09:19:25.145Z,40.86
2023-04-19T09:21:54.541Z,40.35
2023-04-19T09:25:13.911Z,41.10
2023-04-19T09:27:29.280Z,41.06
2023-04-19T09:29:58.679Z,41.38
2023-04-19T09:32:27.032Z,41.16
2023-04-19T09:34:59.837Z,40.67
2023-04-19T09:39:57.053Z,40.59
2023-04-19T09:42:47.300Z,41.07
2023-04-19T09:47:41.120Z,41.78
2023-04-19T09:50:22.038Z,42.12
2023-04-19T09:52:52.866Z,42.11
2023-04-19T09:57:49.923Z,42.54
2023-04-19T10:00:17.033Z,42.91
2023-04-19T10:02:48.717Z,42.29
2023-04-19T10:05:21.311Z,42.01
2023-04-19T10:07:50.345Z,41.65
2023-04-19T10:10:20.784Z,41.58
2023-04-19T10:15:24.113Z,41.75
2023-04-19T10:17:51.645Z,42.00
2023-04-19T10:20:30.234Z,41.34
2023-04-19T10:22:57.497Z,41.16
2023-04-19T10:25:30.991Z,41.06
2023-04-19T10:27:58.573Z,41.25
2023-04-19T10:30:28.753Z,40.57
2023-04-19T10:33:02.863Z,39.92
2023-04-19T10:35:38.199Z,40.10
2023-04-19T10:38:07.838Z,39.59
2023-04-19T10:40:54.977Z,39.08
2023-04-19T10:43:29.262Z,39.47
2023-04-19T10:46:02.086Z,39.88
2023-04-19T10:48:33.418Z,39.49
2023-04-19T10:51:05.211Z,38.37
2023-04-19T10:53:45.400Z,37.15
2023-04-19T10:56:12.967Z,37.36
2023-04-19T10:59:01.896Z,37.50
2023-04-19T11:01:50.687Z,35.87
2023-04-19T11:04:23.257Z,35.43
2023-04-19T11:06:53.318Z,35.80
2023-04-19T11:09:35.409Z,35.73
2023-04-19T11:12:08.314Z,33.36
2023-04-19T11:14:40.846Z,33.79
2023-04-19T11:17:25.944Z,34.63
2023-04-19T11:20:02.191Z,34.92
2023-04-19T11:22:39.581Z,34.77
2023-04-19T11:25:20.894Z,34.57
2023-04-19T11:27:55.707Z,33.26
2023-04-19T11:30:29.513Z,33.74
2023-04-19T11:32:57.390Z,33.98
2023-04-19T11:35:27.318Z,33.79
2023-04-19T11:37:56.257Z,34.10
2023-04-19T11:40:26.127Z,33.94
2023-04-19T11:43:01.560Z,33.91
2023-04-19T11:45:34.780Z,33.36
2023-04-19T11:48:05.941Z,33.49
2023-04-19T11:50:45.710Z,33.39
2023-04-19T11:53:22.260Z,32.85
2023-04-19T11:55:51.597Z,32.74
2023-04-19T11:58:44.509Z,32.48
2023-04-19T12:01:16.843Z,30.71
2023-04-19T12:03:53.223Z,31.48
2023-04-19T12:06:29.204Z,31.71
2023-04-19T12:08:57.485Z,31.45
2023-04-19T12:11:42.693Z,31.65
2023-04-19T12:14:18.349Z,31.43
2023-04-19T12:16:46.122Z,31.85
2023-04-19T12:19:18.917Z,31.16
2023-04-19T12:21:46.946Z,31.33
2023-04-19T12:24:16.175Z,30.75
2023-04-19T12:26:57.322Z,30.51
2023-04-19T12:29:24.660Z,30.83
2023-04-19T12:31:51.553Z,30.68
2023-04-19T12:34:18.527Z,29.70
2023-04-19T12:36:45.668Z,29.71
2023-04-19T12:39:13.418Z,30.17
2023-04-19T12:41:40.463Z,30.65
2023-04-19T12:44:07.371Z,30.33
2023-04-19T12:46:34.408Z,29.89
2023-04-19T12:49:01.309Z,30.00
2023-04-19T12:51:28.242Z,30.18
2023-04-19T12:53:55.416Z,30.00
2023-04-19T12:56:22.310Z,29.75
2023-04-19T12:58:49.154Z,29.47
2023-04-19T13:01:16.167Z,30.19
2023-04-19T13:03:43.175Z,29.66
2023-04-19T13:06:13.444Z,29.82
2023-04-19T13:08:45.465Z,30.19
2023-04-19T13:11:14.739Z,29.91
2023-04-19T13:13:41.647Z,29.95
2023-04-19T13:16:08.625Z,30.43
2023-04-19T13:18:35.797Z,30.81
2023-04-19T13:21:02.813Z,31.29
2023-04-19T13:23:29.755Z,31.46
2023-04-19T13:25:56.655Z,31.92
2023-04-19T13:28:23.589Z,31.58
2023-04-19T13:30:50.523Z,30.10
2023-04-19T13:33:17.393Z,30.10
2023-04-19T13:35:45.066Z,30.60
2023-04-19T13:38:12.047Z,30.69
2023-04-19T13:40:38.978Z,30.42
2023-04-19T13:43:05.874Z,30.94
2023-04-19T13:45:32.771Z,30.99
2023-04-19T13:47:59.703Z,30.64
2023-04-19T13:50:26.620Z,30.98
2023-04-19T13:52:53.662Z,30.99
2023-04-19T13:55:20.747Z,31.62
2023-04-19T13:57:47.663Z,31.62
2023-04-19T14:00:15.204Z,31.67
2023-04-19T14:02:42.341Z,32.05
2023-04-19T14:05:09.737Z,32.26
2023-04-19T14:07:39.116Z,32.88
2023-04-19T14:10:07.270Z,32.83
2023-04-19T14:12:34.146Z,33.36
2023-04-19T14:15:01.293Z,33.83
2023-04-19T14:17:28.324Z,33.82
2023-04-19T14:19:56.351Z,33.98
2023-04-19T14:22:23.246Z,34.76
2023-04-19T14:24:50.318Z,34.77
2023-04-19T14:27:17.197Z,35.50
2023-04-19T14:29:44.097Z,35.46
2023-04-19T14:34:43.894Z,36.28
2023-04-19T14:37:10.853Z,37.25
2023-04-19T14:39:37.746Z,38.16
2023-04-19T14:42:04.859Z,38.34
2023-04-19T14:44:31.814Z,38.83
2023-04-19T14:46:58.690Z,38.98
2023-04-19T14:49:25.583Z,40.74
2023-04-19T14:51:52.885Z,40.67
2023-04-19T14:54:20.032Z,41.49
2023-04-19T14:56:47.007Z,41.77
2023-04-19T14:59:14.052Z,44.11
2023-04-19T15:01:41.102Z,44.61
2023-04-19T15:04:08.919Z,45.24
2023-04-19T15:06:36.476Z,45.58
2023-04-19T15:09:03.565Z,46.16
2023-04-19T15:11:30.613Z,46.64
2023-04-19T15:13:57.502Z,47.37
2023-04-19T15:16:24.570Z,47.26
2023-04-19T15:18:52.364Z,48.53
2023-04-19T15:21:22.917Z,49.79
2023-04-19T15:23:51.205Z,51.54
2023-04-19T15:26:18.127Z,52.58
2023-04-19T15:28:45.084Z,52.76
2023-04-19T15:31:12.049Z,53.91
2023-04-19T15:33:39.019Z,53.93
2023-04-19T15:36:06.245Z,54.61
2023-04-19T15:38:33.372Z,55.02
2023-04-19T15:41:01.398Z,55.88
2023-04-19T15:43:28.357Z,56.37
2023-04-19T15:45:55.512Z,56.44
2023-04-19T15:48:22.576Z,56.97
2023-04-19T15:50:49.673Z,58.10
2023-04-19T15:53:16.885Z,57.82
2023-04-19T15:55:44.252Z,57.56
2023-04-19T15:58:11.130Z,57.75
2023-04-19T16:00:38.012Z,57.63
2023-04-19T16:03:05.186Z,57.32
2023-04-19T16:05:32.139Z,58.18
2023-04-19T16:08:03.482Z,58.16
2023-04-19T16:10:30.647Z,58.45
2023-04-19T16:12:57.701Z,58.63
2023-04-19T16:15:24.709Z,58.39
2023-04-19T16:17:52.403Z,58.53
2023-04-19T16:20:20.567Z,58.76
2023-04-19T16:22:48.137Z,59.65
2023-04-19T16:25:16.104Z,59.50
2023-04-19T16:27:45.660Z,59.57
2023-04-19T16:30:14.031Z,59.30
2023-04-19T16:32:41.841Z,59.05
2023-04-19T16:35:10.085Z,58.89
2023-04-19T16:37:37.042Z,58.17
2023-04-19T16:40:08.690Z,58.22
2023-04-19T16:42:37.821Z,57.85
2023-04-19T16:45:06.272Z,57.82
2023-04-19T16:47:34.252Z,57.81
2023-04-19T16:50:02.422Z,57.54
2023-04-19T16:52:32.828Z,56.95
2023-04-19T16:55:00.068Z,57.17
2023-04-19T16:57:27.184Z,56.95
2023-04-19T16:59:54.112Z,57.09
2023-04-19T17:02:21.141Z,56.80
2023-04-19T17:04:48.274Z,56.65
2023-04-19T17:07:15.298Z,56.50
2023-04-19T17:09:42.181Z,56.49
2023-04-19T17:12:09.156Z,56.25
2023-04-19T17:14:36.100Z,56.42
2023-04-19T17:17:03.128Z,56.11
2023-04-19T17:19:30.150Z,56.25
2023-04-19T17:21:58.661Z,55.89
2023-04-19T17:24:25.547Z,56.23
2023-04-19T17:26:52.605Z,56.27
2023-04-19T17:29:19.637Z,56.37
2023-04-19T17:31:46.748Z,56.04
2023-04-19T17:34:13.719Z,56.24
2023-04-19T17:36:42.084Z,56.19
2023-04-19T17:39:09.667Z,56.31
2023-04-19T17:41:36.754Z,56.57
2023-04-19T17:44:03.670Z,56.61
2023-04-19T17:46:30.704Z,56.88
2023-04-19T17:48:57.600Z,57.16
2023-04-19T17:51:24.535Z,57.46
2023-04-19T17:53:51.744Z,57.31
2023-04-19T17:56:18.924Z,57.39
2023-04-19T17:58:49.369Z,57.52
2023-04-19T18:01:16.631Z,58.12
2023-04-19T18:03:44.076Z,58.01
2023-04-19T18:06:11.917Z,57.77
2023-04-19T18:08:38.863Z,58.08
2023-04-19T18:11:06.891Z,58.57
2023-04-19T18:13:33.800Z,58.40
2023-04-19T18:16:00.780Z,58.27
2023-04-19T18:18:27.695Z,58.07
2023-04-19T18:20:54.570Z,57.98
2023-04-19T18:23:21.621Z,58.06
2023-04-19T18:25:55.263Z,58.00
2023-04-19T18:28:22.403Z,57.62
2023-04-19T18:30:49.308Z,58.16
2023-04-19T18:33:16.205Z,58.03
2023-04-19T18:35:43.081Z,58.07
2023-04-19T18:38:10.121Z,58.01
2023-04-19T18:40:37.074Z,57.64
2023-04-19T18:43:03.982Z,57.62
2023-04-19T18:45:31.521Z,57.43
2023-04-19T18:48:01.283Z,57.65
2023-04-19T18:50:28.345Z,57.50
2023-04-19T18:52:55.294Z,57.66
2023-04-19T18:55:22.196Z,58.33
2023-04-19T18:57:49.095Z,57.77
2023-04-19T19:00:17.220Z,57.67
2023-04-19T19:02:44.993Z,57.93
2023-04-19T19:05:13.861Z,57.77
2023-04-19T19:07:41.958Z,57.26
2023-04-19T19:10:19.114Z,57.18
2023-04-19T19:12:49.497Z,57.31
2023-04-19T19:15:16.994Z,57.51
2023-04-19T19:17:48.557Z,57.64
2023-04-19T19:20:16.573Z,57.41
2023-04-19T19:22:43.594Z,57.29
2023-04-19T19:25:12.040Z,56.92
2023-04-19T19:27:39.080Z,56.94
2023-04-19T19:30:07.853Z,56.86
2023-04-19T19:32:34.907Z,56.91
2023-04-19T19:35:05.591Z,56.94
2023-04-19T19:37:36.903Z,56.76
2023-04-19T19:40:07.087Z,56.72
2023-04-19T19:42:39.291Z,56.51
2023-04-19T19:45:10.275Z,56.71
2023-04-19T19:47:43.374Z,57.11
2023-04-19T19:50:57.682Z,56.84
2023-04-19T19:53:01.449Z,56.66
2023-04-19T19:55:29.006Z,56.48
2023-04-19T20:02:56.827Z,57.10
2023-04-19T20:05:24.295Z,57.06
2023-04-19T20:10:21.413Z,57.67
2023-04-19T20:12:48.317Z,57.55
2023-04-19T20:15:15.384Z,58.65
2023-04-19T20:17:42.313Z,58.94
2023-04-19T20:20:11.114Z,59.46
2023-04-19T20:22:38.427Z,59.79
2023-04-19T20:25:05.861Z,59.87
2023-04-19T20:27:33.408Z,60.07
2023-04-19T20:30:00.855Z,60.42
2023-04-19T20:32:27.795Z,60.38
2023-04-19T20:34:54.772Z,60.48
2023-04-19T20:37:22.449Z,60.53
2023-04-19T20:39:49.324Z,60.48
2023-04-19T20:42:16.202Z,60.50
2023-04-19T20:44:43.076Z,60.42
2023-04-19T20:47:10.392Z,60.65
2023-04-19T20:49:37.268Z,60.54
2023-04-19T20:52:06.415Z,60.42
2023-04-19T20:54:34.160Z,60.27
2023-04-19T20:57:04.767Z,60.64
2023-04-19T20:59:31.848Z,60.15
2023-04-19T21:01:59.820Z,59.86
2023-04-19T21:04:26.952Z,59.76
2023-04-19T21:06:53.970Z,59.88
2023-04-19T21:09:21.147Z,59.52
2023-04-19T21:11:48.043Z,60.45
2023-04-19T21:14:14.936Z,60.91
2023-04-19T21:16:41.888Z,61.58
2023-04-19T21:19:08.770Z,62.04
2023-04-19T21:21:35.652Z,61.97
2023-04-19T21:24:02.589Z,61.89
2023-04-19T21:26:29.489Z,62.17
2023-04-19T21:28:56.354Z,62.10
2023-04-19T21:31:23.281Z,62.24
2023-04-19T21:33:50.189Z,62.59
2023-04-19T21:36:17.052Z,62.80
2023-04-19T21:38:43.965Z,62.78
2023-04-19T21:41:10.861Z,62.64
2023-04-19T21:43:37.736Z,62.84
2023-04-19T21:46:05.228Z,62.63
2023-04-19T21:48:32.454Z,62.94
2023-04-19T21:51:01.303Z,62.91
2023-04-19T21:53:28.176Z,62.80
2023-04-19T21:55:55.088Z,62.77
2023-04-19T21:58:21.954Z,62.71
2023-04-19T22:00:49.069Z,62.73
2023-04-19T22:03:16.190Z,62.86
2023-04-19T22:05:46.170Z,63.05
2023-04-19T22:08:13.282Z,62.96
2023-04-19T22:10:40.989Z,62.90
2023-04-19T22:13:08.675Z,63.15
2023-04-19T22:15:36.359Z,62.91
2023-04-19T22:18:03.949Z,62.93
2023-04-19T22:20:32.099Z,62.70
2023-04-19T22:22:58.999Z,62.66
2023-04-19T22:25:26.188Z,62.64
2023-04-19T22:27:53.059Z,62.48
2023-04-19T22:30:19.963Z,62.43
2023-04-19T22:32:46.922Z,62.35
2023-04-19T22:35:13.902Z,62.03
2023-04-19T22:37:40.819Z,62.44
2023-04-19T22:40:09.300Z,62.49
2023-04-19T22:42:37.065Z,62.42
2023-04-19T22:45:04.386Z,62.52
2023-04-19T22:47:32.950Z,62.34
2023-04-19T22:49:59.953Z,62.41
2023-04-19T22:52:27.921Z,62.24
2023-04-19T22:54:54.875Z,62.11
2023-04-19T22:57:21.755Z,62.07
2023-04-19T22:59:48.856Z,61.89
2023-04-19T23:02:15.793Z,61.84
2023-04-19T23:04:44.525Z,61.43
2023-04-19T23:07:11.801Z,61.46
2023-04-19T23:09:39.323Z,61.32
2023-04-19T23:12:06.994Z,61.65
2023-04-19T23:14:33.933Z,62.00
2023-04-19T23:17:02.657Z,62.15
2023-04-19T23:19:30.356Z,62.47
2023-04-19T23:21:57.257Z,62.42
2023-04-19T23:24:24.509Z,62.45
2023-04-19T23:26:51.395Z,62.85
2023-04-19T23:29:18.541Z,62.69
2023-04-19T23:31:45.766Z,62.43
2023-04-19T23:34:13.944Z,62.31
2023-04-19T23:36:40.895Z,62.88
2023-04-19T23:39:07.799Z,62.66
2023-04-19T23:41:34.673Z,62.87
2023-04-19T23:44:01.534Z,62.70
2023-04-19T23:46:28.485Z,62.81
2023-04-19T23:48:55.579Z,63.01
2023-04-19T23:51:22.458Z,63.11
2023-04-19T23:53:49.348Z,63.39
2023-04-19T23:56:16.265Z,63.26
2023-04-19T23:58:43.149Z,63.61
